Time;durP1;ratioP1;P1;durP2;ratioP2;P2;SDS_P1;SDS_P2;PMS_P1;PMS_P2;Temp;Humidity;BMP_temperature;BMP_pressure;BME280_temperature;BME280_humidity;BME280_pressure;Samples;Min_cycle;Max_cycle;Signal;HPM_P1;HPM_P2
2021/06/02 00:01:50;;;;;;;5.33;3.10;;;14.90;99.90;;;;;;4970348;28;20202;-67
2021/06/02 00:04:19;;;;;;;5.57;2.70;;;14.90;99.90;;;;;;4973116;28;20211;-67
2021/06/02 00:06:49;;;;;;;3.43;2.70;;;14.90;99.90;;;;;;4973214;28;20196;-67
2021/06/02 00:09:17;;;;;;;4.90;3.17;;;14.90;99.90;;;;;;4972640;28;20281;-66
2021/06/02 00:11:43;;;;;;;2.60;2.40;;;14.90;99.90;;;;;;4972903;28;20239;-67
2021/06/02 00:14:11;;;;;;;2.40;2.20;;;14.90;99.90;;;;;;4971814;28;20199;-67
2021/06/02 00:16:39;;;;;;;4.93;2.70;;;14.90;99.90;;;;;;4972016;28;20282;-67
2021/06/02 00:19:05;;;;;;;2.33;2.20;;;14.90;99.90;;;;;;4971407;28;20210;-67
2021/06/02 00:21:34;;;;;;;4.50;2.23;;;14.90;99.90;;;;;;4972387;28;20218;-68
2021/06/02 00:24:01;;;;;;;2.20;2.00;;;14.90;99.90;;;;;;4971567;28;20319;-67
2021/06/02 00:26:34;;;;;;;2.07;1.97;;;15.00;99.90;;;;;;4972789;28;20663;-68
2021/06/02 00:29:02;;;;;;;2.83;2.20;;;15.00;99.90;;;;;;4971994;28;20237;-68
2021/06/02 00:31:29;;;;;;;1.60;1.50;;;15.00;99.90;;;;;;4971402;28;20239;-68
2021/06/02 00:33:56;;;;;;;1.70;1.60;;;15.00;99.90;;;;;;4973033;28;20307;-68
2021/06/02 00:36:23;;;;;;;1.60;1.50;;;15.10;99.90;;;;;;4973180;28;20233;-67
2021/06/02 00:38:51;;;;;;;2.27;1.90;;;15.10;99.90;;;;;;4973144;28;20298;-67
2021/06/02 00:41:18;;;;;;;2.23;1.70;;;15.10;99.90;;;;;;4971769;28;20243;-67
2021/06/02 00:43:47;;;;;;;1.63;1.53;;;15.20;99.90;;;;;;4972042;28;20216;-67
2021/06/02 00:46:15;;;;;;;1.77;1.30;;;15.20;99.90;;;;;;4970999;28;20210;-67
2021/06/02 00:48:43;;;;;;;1.37;1.30;;;15.20;99.90;;;;;;4970282;28;20673;-67
2021/06/02 00:51:11;;;;;;;1.37;1.37;;;15.30;99.90;;;;;;4963354;28;20215;-67
2021/06/02 00:53:38;;;;;;;2.57;1.40;;;15.30;99.90;;;;;;4970115;28;20538;-67
2021/06/02 00:56:06;;;;;;;1.70;1.60;;;15.30;99.90;;;;;;4971963;28;20238;-68
2021/06/02 00:58:37;;;;;;;2.47;1.37;;;15.30;99.90;;;;;;4972157;28;20267;-68
2021/06/02 01:01:06;;;;;;;3.07;2.20;;;15.40;99.90;;;;;;4969976;28;20224;-67
2021/06/02 01:03:36;;;;;;;1.97;1.60;;;15.40;99.90;;;;;;4971434;28;20223;-67
2021/06/02 01:06:03;;;;;;;2.27;1.67;;;15.40;99.90;;;;;;4971870;28;20234;-67
2021/06/02 01:08:30;;;;;;;2.30;1.97;;;15.40;99.90;;;;;;4987348;28;20617;-66
2021/06/02 01:10:57;;;;;;;1.87;1.77;;;15.40;99.90;;;;;;4971565;28;20244;-67
2021/06/02 01:13:24;;;;;;;2.10;1.90;;;15.40;99.90;;;;;;4969046;28;20215;-67
2021/06/02 01:15:52;;;;;;;1.43;1.33;;;15.40;99.90;;;;;;4969779;28;20278;-67
2021/06/02 01:18:20;;;;;;;1.67;1.57;;;15.40;99.90;;;;;;4972344;28;20208;-67
2021/06/02 01:20:48;;;;;;;1.60;1.50;;;15.40;99.90;;;;;;4971082;28;20235;-67
2021/06/02 01:23:17;;;;;;;1.27;1.27;;;15.40;99.90;;;;;;4968919;28;20254;-66
2021/06/02 01:25:44;;;;;;;1.33;1.33;;;15.40;99.90;;;;;;4969445;28;20279;-68
2021/06/02 01:28:11;;;;;;;1.50;1.40;;;15.40;99.90;;;;;;4971499;28;20224;-67
2021/06/02 01:30:38;;;;;;;1.67;1.57;;;15.40;99.90;;;;;;4969002;28;20256;-68
2021/06/02 01:33:24;;;;;;;1.80;1.70;;;15.40;99.90;;;;;;4971694;28;20218;-68
2021/06/02 01:36:02;;;;;;;1.80;1.70;;;15.40;99.90;;;;;;4971870;28;20554;-66
2021/06/02 01:39:13;;;;;;;3.17;1.97;;;15.40;99.90;;;;;;4972334;28;20331;-66
2021/06/02 01:42:02;;;;;;;2.00;1.90;;;15.40;99.90;;;;;;4966561;28;20240;-67
2021/06/02 01:45:19;;;;;;;1.97;1.77;;;15.50;99.90;;;;;;4962872;28;20548;-67
2021/06/02 01:48:18;;;;;;;1.53;1.43;;;15.50;99.90;;;;;;4961997;28;20207;-67
2021/06/02 01:51:22;;;;;;;1.50;1.40;;;15.50;99.90;;;;;;4970944;28;20266;-68
2021/06/02 01:54:06;;;;;;;1.70;1.60;;;15.50;99.90;;;;;;4911240;29;20244;-67
2021/06/02 01:57:22;;;;;;;3.37;1.80;;;15.50;99.90;;;;;;4911452;29;20225;-67
2021/06/02 02:00:09;;;;;;;1.80;1.70;;;15.50;99.90;;;;;;4909155;29;20257;-67
2021/06/02 02:03:09;;;;;;;1.77;1.67;;;15.40;99.90;;;;;;4910140;29;20304;-68
2021/06/02 02:05:58;;;;;;;1.93;1.77;;;15.40;99.90;;;;;;4911037;29;20325;-67
2021/06/02 02:08:44;;;;;;;4.20;2.03;;;15.40;99.90;;;;;;4910259;29;20680;-67
2021/06/02 02:11:27;;;;;;;2.60;1.90;;;15.40;99.90;;;;;;4904166;29;20695;-66
2021/06/02 02:14:22;;;;;;;1.97;1.87;;;15.40;99.90;;;;;;4892640;29;20329;-66
2021/06/02 02:16:58;;;;;;;1.77;1.67;;;15.40;99.90;;;;;;4907806;29;20224;-68
2021/06/02 02:20:05;;;;;;;1.80;1.70;;;15.40;99.90;;;;;;4910999;29;20221;-67
2021/06/02 02:22:53;;;;;;;2.40;2.20;;;15.30;99.90;;;;;;4854341;29;20691;-68
2021/06/02 02:25:25;;;;;;;1.83;1.73;;;15.40;99.90;;;;;;4854084;29;20303;-67
2021/06/02 02:28:04;;;;;;;1.70;1.60;;;15.40;99.90;;;;;;4855168;29;20290;-67
2021/06/02 02:30:42;;;;;;;1.40;1.30;;;15.40;99.90;;;;;;4878472;29;20212;-67
2021/06/02 02:33:26;;;;;;;1.40;1.30;;;15.40;99.90;;;;;;4910141;29;20613;-67
2021/06/02 02:36:01;;;;;;;1.53;1.43;;;15.50;99.90;;;;;;4911138;29;20206;-67
2021/06/02 02:38:47;;;;;;;1.57;1.47;;;15.50;99.90;;;;;;4893988;29;20587;-68
2021/06/02 02:41:30;;;;;;;1.63;1.53;;;15.50;99.90;;;;;;4908892;29;20312;-68
2021/06/02 02:44:03;;;;;;;1.87;1.70;;;15.50;99.90;;;;;;4909237;29;20240;-67
2021/06/02 02:46:38;;;;;;;2.17;1.97;;;15.50;99.90;;;;;;4909759;29;20218;-67
2021/06/02 02:49:16;;;;;;;1.90;1.80;;;15.50;99.90;;;;;;4906241;29;20357;-67
2021/06/02 02:51:52;;;;;;;2.73;1.80;;;15.50;99.90;;;;;;4906263;29;20225;-67
2021/06/02 02:54:25;;;;;;;1.20;1.20;;;15.50;99.90;;;;;;4910739;29;20260;-68
2021/06/02 02:57:01;;;;;;;4.30;1.43;;;15.60;99.90;;;;;;4910595;29;20269;-68
2021/06/02 02:59:31;;;;;;;1.60;1.50;;;15.60;99.90;;;;;;4956476;28;20215;-68
2021/06/02 03:02:03;;;;;;;1.77;1.63;;;15.70;99.90;;;;;;4963496;28;20289;-68
2021/06/02 03:04:39;;;;;;;2.13;1.80;;;15.70;99.90;;;;;;4969243;28;20582;-68
2021/06/02 03:07:06;;;;;;;1.70;1.60;;;15.70;99.90;;;;;;4969816;28;20208;-67
2021/06/02 03:09:40;;;;;;;1.67;1.57;;;15.80;99.90;;;;;;4969833;28;20393;-67
2021/06/02 03:12:17;;;;;;;1.40;1.30;;;15.80;99.90;;;;;;4966400;28;20216;-67
2021/06/02 03:14:59;;;;;;;2.73;1.60;;;15.80;99.90;;;;;;4967655;28;20692;-68
2021/06/02 03:17:33;;;;;;;1.50;1.40;;;15.80;99.90;;;;;;4969262;28;20254;-68
2021/06/02 03:20:07;;;;;;;1.70;1.60;;;15.80;99.90;;;;;;4969968;28;20674;-68
2021/06/02 03:22:43;;;;;;;1.40;1.30;;;15.80;99.90;;;;;;4969973;28;20216;-66
2021/06/02 03:25:22;;;;;;;1.73;1.63;;;15.80;99.90;;;;;;4963048;28;20821;-67
2021/06/02 03:28:10;;;;;;;1.70;1.60;;;15.80;99.90;;;;;;4968085;28;20295;-67
2021/06/02 03:30:40;;;;;;;1.60;1.50;;;15.90;99.90;;;;;;4966846;28;20195;-67
2021/06/02 03:33:28;;;;;;;2.73;1.47;;;15.90;99.90;;;;;;4969195;28;20199;-67
2021/06/02 03:36:06;;;;;;;2.03;1.93;;;15.80;99.90;;;;;;4970109;28;20854;-68
2021/06/02 03:38:52;;;;;;;1.80;1.70;;;15.80;99.90;;;;;;4967980;28;20206;-67
2021/06/02 03:41:30;;;;;;;4.00;1.97;;;15.80;99.90;;;;;;4967101;28;20229;-66
2021/06/02 03:44:08;;;;;;;1.47;1.33;;;15.70;99.90;;;;;;4967713;28;20592;-66
2021/06/02 03:46:45;;;;;;;2.10;1.70;;;15.70;99.90;;;;;;4966833;28;20200;-66
2021/06/02 03:49:16;;;;;;;1.80;1.70;;;15.70;99.90;;;;;;4969901;28;20196;-67
2021/06/02 03:51:49;;;;;;;3.87;1.70;;;15.70;99.90;;;;;;4968971;28;20531;-67
2021/06/02 03:54:31;;;;;;;1.50;1.40;;;15.70;99.90;;;;;;4969188;28;20214;-67
2021/06/02 03:57:18;;;;;;;1.40;1.30;;;15.70;99.90;;;;;;4969607;28;20195;-67
2021/06/02 03:59:53;;;;;;;1.70;1.60;;;15.80;99.90;;;;;;4964346;28;20282;-66
2021/06/02 04:02:22;;;;;;;1.67;1.57;;;15.80;99.90;;;;;;4965577;28;20208;-67
2021/06/02 04:05:12;;;;;;;1.40;1.30;;;15.80;99.90;;;;;;4966541;28;20226;-66
2021/06/02 04:07:45;;;;;;;2.20;1.40;;;15.80;99.90;;;;;;4966802;28;20227;-67
2021/06/02 04:10:14;;;;;;;3.30;1.43;;;15.90;99.90;;;;;;4967759;28;20637;-67
2021/06/02 04:12:50;;;;;;;1.10;1.10;;;15.90;99.90;;;;;;4966492;28;20236;-67
2021/06/02 04:15:17;;;;;;;1.83;1.40;;;15.90;99.90;;;;;;4961146;28;20200;-67
2021/06/02 04:17:49;;;;;;;1.50;1.40;;;15.90;99.90;;;;;;4965616;28;20195;-67
2021/06/02 04:20:18;;;;;;;1.20;1.10;;;15.90;99.90;;;;;;4967335;28;20196;-68
2021/06/02 04:22:47;;;;;;;1.70;1.53;;;15.90;99.90;;;;;;4968925;28;20208;-67
2021/06/02 04:25:15;;;;;;;1.70;1.60;;;16.00;99.90;;;;;;4968323;28;20720;-68
2021/06/02 04:27:45;;;;;;;1.40;1.30;;;16.10;99.90;;;;;;4968846;28;20678;-67
2021/06/02 04:30:15;;;;;;;1.50;1.40;;;16.00;99.90;;;;;;4966978;28;20208;-67
2021/06/02 04:32:44;;;;;;;1.50;1.40;;;16.10;99.90;;;;;;4968820;28;20352;-67
2021/06/02 04:35:13;;;;;;;1.67;1.53;;;16.20;99.90;;;;;;4969265;28;20678;-68
2021/06/02 04:37:42;;;;;;;1.60;1.50;;;16.20;99.90;;;;;;4973089;28;20204;-67
2021/06/02 04:40:10;;;;;;;1.70;1.60;;;16.20;99.90;;;;;;4971250;28;20200;-68
2021/06/02 04:42:38;;;;;;;1.50;1.40;;;16.20;99.90;;;;;;4972897;28;20488;-68
2021/06/02 04:45:07;;;;;;;1.40;1.30;;;16.20;99.90;;;;;;4968764;28;20232;-68
2021/06/02 04:47:35;;;;;;;1.70;1.60;;;16.20;99.90;;;;;;4973034;28;20279;-67
2021/06/02 04:50:10;;;;;;;1.97;1.30;;;16.30;99.90;;;;;;4963786;28;20239;-67
2021/06/02 04:53:34;;;;;;;2.60;1.60;;;16.30;99.90;;;;;;4972709;28;20282;-67
2021/06/02 04:56:30;;;;;;;3.07;1.87;;;16.30;99.90;;;;;;4896482;29;20236;-67
2021/06/02 04:59:32;;;;;;;1.70;1.60;;;16.40;99.90;;;;;;4846104;29;20235;-67
2021/06/02 05:02:36;;;;;;;2.83;2.07;;;16.40;99.90;;;;;;4845466;29;20212;-67
2021/06/02 05:05:26;;;;;;;2.00;1.80;;;16.50;99.90;;;;;;4853360;29;20250;-67
2021/06/02 05:08:45;;;;;;;2.00;1.90;;;16.50;99.90;;;;;;4856861;29;20212;-66
2021/06/02 05:11:47;;;;;;;1.60;1.50;;;16.50;99.90;;;;;;4856129;29;20236;-66
2021/06/02 05:14:49;;;;;;;1.80;1.70;;;16.60;99.90;;;;;;4853936;29;20243;-67
2021/06/02 05:17:36;;;;;;;1.80;1.70;;;16.70;99.90;;;;;;4848550;29;20582;-67
2021/06/02 05:22:04;;;;;;;1.60;1.50;;;16.80;99.90;;;;;;4844573;29;20241;-67
2021/06/02 05:24:02;;;;;;;2.30;1.40;;;16.80;99.90;;;;;;4776037;29;20299;-67
2021/06/02 05:27:16;;;;;;;1.60;1.50;;;16.90;99.90;;;;;;4785301;29;20294;-67
2021/06/02 05:30:24;;;;;;;1.70;1.60;;;17.00;99.90;;;;;;4803850;29;20300;-67
2021/06/02 05:33:42;;;;;;;2.13;1.60;;;17.10;99.90;;;;;;4855535;29;20698;-66
2021/06/02 05:36:42;;;;;;;3.27;1.60;;;17.30;99.90;;;;;;4864746;29;20301;-66
2021/06/02 05:39:14;;;;;;;1.70;1.60;;;17.40;99.90;;;;;;4901801;29;20310;-66
2021/06/02 05:41:53;;;;;;;3.63;1.50;;;17.50;99.90;;;;;;4909416;29;20248;-67
2021/06/02 05:45:01;;;;;;;2.03;1.73;;;17.60;99.90;;;;;;4909688;29;20228;-67
2021/06/02 05:48:10;;;;;;;1.60;1.50;;;17.70;99.90;;;;;;4902372;29;20256;-67
2021/06/02 05:51:20;;;;;;;1.97;1.80;;;17.90;99.90;;;;;;4911175;29;20304;-68
2021/06/02 05:54:30;;;;;;;2.20;1.87;;;18.00;99.90;;;;;;4909986;29;20204;-67
2021/06/02 05:57:28;;;;;;;2.60;1.90;;;18.20;99.90;;;;;;4909909;29;20264;-67
2021/06/02 06:00:34;;;;;;;6.00;2.23;;;18.30;99.90;;;;;;4934846;28;20216;-67
2021/06/02 06:03:41;;;;;;;2.22;1.98;;;18.60;99.90;;;;;;4909134;29;20376;-67
2021/06/02 06:06:29;;;;;;;2.35;1.90;;;18.70;99.90;;;;;;4910356;29;20217;-68
2021/06/02 06:09:46;;;;;;;3.60;2.00;;;19.10;99.90;;;;;;4890218;29;20217;-67
2021/06/02 06:12:49;;;;;;;2.17;2.08;;;20.90;99.90;;;;;;4911296;29;20389;-68
2021/06/02 06:15:50;;;;;;;2.33;2.13;;;23.60;99.20;;;;;;4907903;29;20223;-68
2021/06/02 06:18:42;;;;;;;3.50;1.88;;;25.50;93.10;;;;;;4892845;29;20209;-67
2021/06/02 06:21:41;;;;;;;3.65;2.00;;;27.00;87.50;;;;;;4900679;29;20214;-67
2021/06/02 06:24:12;;;;;;;1.90;1.80;;;28.70;77.10;;;;;;4817668;29;20229;-68
2021/06/02 06:26:48;;;;;;;1.90;1.60;;;30.50;68.90;;;;;;4817762;29;20222;-68
2021/06/02 06:29:18;;;;;;;2.75;2.03;;;31.80;63.80;;;;;;4806721;29;20261;-68
2021/06/02 06:31:49;;;;;;;1.60;1.50;;;33.00;58.80;;;;;;4813994;29;20676;-68
2021/06/02 06:34:20;;;;;;;1.60;1.60;;;34.40;55.40;;;;;;4816794;29;20206;-67
2021/06/02 06:36:50;;;;;;;3.38;1.77;;;35.80;52.30;;;;;;4811077;29;20206;-67
2021/06/02 06:39:28;;;;;;;1.60;1.50;;;37.00;48.80;;;;;;4811667;29;20458;-71
2021/06/02 06:41:55;;;;;;;2.40;1.75;;;37.30;46.70;;;;;;4868111;29;20547;-71
2021/06/02 06:44:23;;;;;;;3.30;1.88;;;37.00;45.70;;;;;;4869008;29;20789;-70
2021/06/02 06:46:53;;;;;;;3.13;1.85;;;37.20;45.50;;;;;;4850107;29;20302;-70
2021/06/02 06:49:22;;;;;;;3.15;1.95;;;37.80;44.50;;;;;;4868842;29;20218;-71
2021/06/02 06:51:52;;;;;;;2.90;2.45;;;38.40;43.60;;;;;;4870962;29;20679;-71
2021/06/02 06:54:22;;;;;;;2.45;2.28;;;39.10;42.20;;;;;;4870744;29;20243;-71
2021/06/02 06:56:50;;;;;;;1.98;1.73;;;39.60;40.20;;;;;;4870424;29;20206;-70
2021/06/02 06:59:18;;;;;;;2.40;2.20;;;39.60;39.90;;;;;;4870514;29;20666;-71
2021/06/02 07:01:46;;;;;;;1.65;1.60;;;39.10;39.40;;;;;;4940300;28;20212;-70
2021/06/02 07:04:15;;;;;;;3.78;2.25;;;38.40;39.90;;;;;;4968562;28;20307;-68
2021/06/02 07:06:44;;;;;;;2.00;1.90;;;37.80;39.60;;;;;;4968392;28;20271;-70
2021/06/02 07:09:11;;;;;;;2.42;2.22;;;37.10;40.20;;;;;;4966437;28;20204;-70
2021/06/02 07:11:41;;;;;;;3.85;2.65;;;36.30;40.70;;;;;;4966996;28;20263;-70
2021/06/02 07:14:10;;;;;;;2.83;2.28;;;35.30;39.90;;;;;;4963840;28;20221;-71
2021/06/02 07:16:38;;;;;;;2.72;1.77;;;34.20;41.00;;;;;;4966910;28;20571;-70
2021/06/02 07:19:06;;;;;;;2.10;2.00;;;33.50;42.10;;;;;;4968058;28;20347;-70
2021/06/02 07:21:35;;;;;;;2.25;2.05;;;32.90;42.70;;;;;;4968590;28;20197;-71
2021/06/02 07:24:02;;;;;;;3.97;2.00;;;32.20;43.30;;;;;;4968094;28;20224;-70
2021/06/02 07:26:28;;;;;;;2.65;2.42;;;31.50;43.50;;;;;;4962454;28;20232;-70
2021/06/02 07:28:57;;;;;;;2.53;2.30;;;30.80;44.20;;;;;;4967779;28;20204;-71
2021/06/02 07:31:24;;;;;;;6.22;2.53;;;30.30;44.80;;;;;;4966176;28;20208;-71
2021/06/02 07:33:50;;;;;;;4.90;2.55;;;29.70;45.10;;;;;;4966059;28;20675;-71
2021/06/02 07:36:17;;;;;;;2.47;2.28;;;29.10;45.50;;;;;;4964579;28;20201;-72
2021/06/02 07:38:44;;;;;;;2.20;2.00;;;28.60;46.30;;;;;;4964755;28;20203;-71
2021/06/02 07:41:10;;;;;;;1.83;1.73;;;28.00;47.10;;;;;;4963311;28;20215;-72
2021/06/02 07:43:39;;;;;;;3.35;2.28;;;27.90;47.80;;;;;;4965159;28;20299;-72
2021/06/02 07:46:07;;;;;;;8.00;2.67;;;27.60;48.20;;;;;;4964163;28;20197;-72
2021/06/02 07:48:33;;;;;;;3.42;2.58;;;27.40;48.80;;;;;;4968567;28;20259;-70
2021/06/02 07:51:00;;;;;;;2.58;2.47;;;27.10;50.10;;;;;;4966851;28;20207;-71
2021/06/02 07:53:27;;;;;;;2.10;1.95;;;26.90;50.00;;;;;;4967402;28;20243;-71
2021/06/02 07:55:53;;;;;;;2.30;2.10;;;26.70;50.60;;;;;;4967379;28;20200;-72
2021/06/02 07:58:20;;;;;;;2.50;2.30;;;26.60;50.70;;;;;;4967494;28;20196;-71
2021/06/02 08:00:46;;;;;;;1.98;1.88;;;26.60;51.10;;;;;;4964403;28;20291;-71
2021/06/02 08:03:14;;;;;;;2.10;2.00;;;26.60;51.40;;;;;;4968152;28;20587;-70
2021/06/02 08:05:41;;;;;;;3.45;2.40;;;26.60;51.50;;;;;;4966572;28;20307;-71
2021/06/02 08:08:09;;;;;;;2.50;2.30;;;26.60;51.80;;;;;;4967295;28;20375;-72
2021/06/02 08:10:35;;;;;;;2.72;2.55;;;26.40;52.00;;;;;;4966052;28;20300;-71
2021/06/02 08:13:02;;;;;;;2.67;2.42;;;26.30;52.30;;;;;;4971762;28;20283;-72
2021/06/02 08:15:29;;;;;;;4.05;2.72;;;26.10;52.50;;;;;;4968850;28;20224;-72
2021/06/02 08:17:56;;;;;;;3.88;2.17;;;26.00;52.80;;;;;;4971567;28;20204;-72
2021/06/02 08:20:24;;;;;;;3.13;2.80;;;25.80;52.90;;;;;;4967505;28;20209;-72
2021/06/02 08:22:50;;;;;;;3.75;2.22;;;25.70;52.50;;;;;;4971716;28;20204;-71
2021/06/02 08:25:18;;;;;;;2.53;2.30;;;25.60;52.80;;;;;;4970548;28;20216;-72
2021/06/02 08:27:45;;;;;;;3.15;2.85;;;25.50;52.70;;;;;;4971410;28;20196;-70
2021/06/02 08:30:16;;;;;;;2.20;2.00;;;25.40;52.20;;;;;;4967063;28;20521;-72
2021/06/02 08:32:43;;;;;;;5.32;2.30;;;25.40;52.50;;;;;;4971198;28;20631;-67
2021/06/02 08:35:11;;;;;;;6.43;2.28;;;25.50;52.40;;;;;;4970287;28;20201;-67
2021/06/02 08:37:40;;;;;;;1.75;1.55;;;25.60;52.20;;;;;;4967844;28;20760;-68
2021/06/02 08:40:08;;;;;;;1.75;1.65;;;25.70;52.30;;;;;;4966056;28;20212;-67
2021/06/02 08:42:35;;;;;;;1.95;1.85;;;25.90;52.20;;;;;;4972086;28;20239;-68
2021/06/02 08:45:02;;;;;;;1.80;1.70;;;26.10;52.10;;;;;;4967773;28;20303;-69
2021/06/02 08:47:28;;;;;;;1.63;1.52;;;26.40;51.80;;;;;;4970206;28;20209;-69
2021/06/02 08:49:55;;;;;;;1.80;1.70;;;26.50;51.80;;;;;;4963993;28;20197;-68
2021/06/02 08:52:22;;;;;;;2.35;1.77;;;26.80;51.80;;;;;;4969065;28;20295;-68
2021/06/02 08:54:50;;;;;;;1.73;1.63;;;27.20;51.70;;;;;;4971105;28;20275;-68
2021/06/02 08:57:17;;;;;;;2.47;1.90;;;27.40;51.30;;;;;;4969655;28;20205;-68
2021/06/02 08:59:44;;;;;;;2.67;2.10;;;27.50;51.10;;;;;;4968957;28;20208;-68
2021/06/02 09:02:10;;;;;;;2.67;2.47;;;27.70;51.00;;;;;;4970842;28;20197;-68
2021/06/02 09:04:37;;;;;;;2.08;1.83;;;27.90;50.90;;;;;;4970259;28;20231;-68
2021/06/02 09:07:05;;;;;;;5.35;2.25;;;28.10;51.00;;;;;;4970451;28;20204;-69
2021/06/02 09:09:32;;;;;;;2.25;2.10;;;28.20;50.60;;;;;;4968810;28;20766;-69
2021/06/02 09:12:04;;;;;;;3.72;2.10;;;28.30;50.60;;;;;;4970101;28;20721;-66
2021/06/02 09:14:33;;;;;;;3.17;2.30;;;28.50;50.40;;;;;;4969838;28;20319;-69
2021/06/02 09:17:02;;;;;;;4.20;2.25;;;28.70;50.30;;;;;;4967332;28;20235;-68
2021/06/02 09:19:35;;;;;;;2.72;2.30;;;29.00;50.00;;;;;;4966292;28;20228;-67
2021/06/02 09:22:01;;;;;;;2.80;2.40;;;29.20;49.60;;;;;;4968243;28;20299;-67
2021/06/02 09:25:03;;;;;;;2.13;2.03;;;29.30;48.60;;;;;;4968397;28;20216;-67
2021/06/02 09:27:57;;;;;;;4.03;2.00;;;29.40;48.40;;;;;;4966259;28;20577;-67
2021/06/02 09:30:25;;;;;;;3.03;2.20;;;29.50;48.30;;;;;;4927100;29;20257;-67
2021/06/02 09:32:54;;;;;;;2.28;2.08;;;29.60;48.10;;;;;;4912509;29;20269;-67
2021/06/02 09:35:21;;;;;;;5.95;3.03;;;29.80;48.10;;;;;;4928711;29;20607;-67
2021/06/02 09:37:53;;;;;;;6.95;2.53;;;29.70;47.50;;;;;;4928567;29;20202;-68
2021/06/02 09:40:26;;;;;;;2.60;2.40;;;29.50;46.90;;;;;;4927046;29;20216;-68
2021/06/02 09:42:53;;;;;;;2.60;2.42;;;29.20;47.30;;;;;;4914117;29;20202;-67
2021/06/02 09:45:22;;;;;;;1.98;1.88;;;28.90;47.60;;;;;;4926212;29;20882;-67
2021/06/02 09:47:49;;;;;;;2.60;2.40;;;28.80;48.00;;;;;;4928824;29;20677;-67
2021/06/02 09:50:19;;;;;;;2.20;2.08;;;28.60;47.80;;;;;;4927609;29;20197;-67
2021/06/02 09:52:48;;;;;;;2.08;1.98;;;28.50;48.00;;;;;;4912458;29;20289;-67
2021/06/02 09:55:18;;;;;;;2.00;1.90;;;28.50;47.80;;;;;;4928429;29;20201;-68
2021/06/02 09:57:45;;;;;;;2.92;1.90;;;28.50;48.10;;;;;;4928199;29;20646;-68
2021/06/02 10:00:13;;;;;;;3.30;2.13;;;28.60;47.20;;;;;;4925403;29;20995;-68
2021/06/02 10:02:41;;;;;;;2.97;1.75;;;28.70;46.40;;;;;;4925443;29;20202;-68
2021/06/02 10:05:09;;;;;;;4.45;2.00;;;28.80;45.70;;;;;;4928050;29;20280;-68
2021/06/02 10:07:44;;;;;;;4.15;2.03;;;28.90;45.20;;;;;;4960852;28;20224;-67
2021/06/02 10:10:12;;;;;;;1.90;1.80;;;29.00;45.00;;;;;;4968676;28;20196;-68
2021/06/02 10:12:40;;;;;;;2.20;2.00;;;29.00;45.00;;;;;;4966713;28;20232;-68
2021/06/02 10:15:07;;;;;;;2.00;1.90;;;29.00;45.50;;;;;;4959933;28;20315;-68
2021/06/02 10:17:36;;;;;;;1.88;1.60;;;29.00;45.70;;;;;;4968711;28;20279;-68
2021/06/02 10:20:09;;;;;;;4.20;1.90;;;29.10;44.40;;;;;;4968977;28;20287;-67
2021/06/02 10:22:36;;;;;;;3.53;1.95;;;29.00;44.50;;;;;;4969706;28;20266;-67
2021/06/02 10:25:05;;;;;;;2.22;2.13;;;29.10;45.30;;;;;;4967188;28;20232;-67
2021/06/02 10:27:32;;;;;;;2.15;2.00;;;29.00;44.50;;;;;;4957398;28;20207;-68
2021/06/02 10:29:59;;;;;;;2.20;2.10;;;29.00;44.80;;;;;;4965352;28;20283;-68
2021/06/02 10:32:27;;;;;;;1.90;1.80;;;28.90;45.20;;;;;;4967455;28;20577;-67
2021/06/02 10:34:54;;;;;;;2.13;1.88;;;28.90;44.80;;;;;;4968580;28;20235;-68
2021/06/02 10:37:23;;;;;;;1.65;1.55;;;28.80;44.00;;;;;;4967384;28;20204;-68
2021/06/02 10:40:04;;;;;;;1.70;1.60;;;28.80;43.30;;;;;;4966040;28;20204;-67
2021/06/02 10:42:37;;;;;;;1.95;1.75;;;28.80;43.30;;;;;;4963276;28;20219;-67
2021/06/02 10:45:10;;;;;;;3.75;1.80;;;28.90;43.70;;;;;;4966096;28;20347;-66
2021/06/02 10:47:37;;;;;;;2.00;1.90;;;28.90;42.90;;;;;;4974397;28;20255;-67
2021/06/02 10:50:04;;;;;;;2.00;1.90;;;28.90;43.00;;;;;;4968316;28;20201;-66
2021/06/02 10:52:40;;;;;;;1.98;1.80;;;28.80;43.30;;;;;;4967003;28;20251;-67
2021/06/02 10:55:35;;;;;;;1.80;1.70;;;28.80;43.60;;;;;;4967504;28;20291;-66
2021/06/02 10:58:28;;;;;;;1.98;1.77;;;28.80;43.50;;;;;;4892123;29;20655;-68
2021/06/02 11:01:11;;;;;;;1.75;1.63;;;28.70;42.90;;;;;;4889341;29;20211;-67
2021/06/02 11:03:42;;;;;;;1.50;1.50;;;28.70;42.90;;;;;;4892054;29;20206;-68
2021/06/02 11:06:34;;;;;;;1.88;1.42;;;28.80;43.10;;;;;;4892204;29;20371;-69
2021/06/02 11:09:13;;;;;;;1.75;1.65;;;28.80;42.50;;;;;;4891689;29;20327;-67
2021/06/02 11:11:41;;;;;;;2.33;2.10;;;28.90;42.10;;;;;;4891827;29;20253;-67
2021/06/02 11:14:27;;;;;;;1.88;1.75;;;28.90;41.90;;;;;;4890200;29;20316;-68
2021/06/02 11:17:12;;;;;;;1.60;1.50;;;28.90;41.00;;;;;;4891198;29;20203;-68
2021/06/02 11:19:42;;;;;;;4.03;2.42;;;28.80;41.20;;;;;;4891065;29;20217;-68
2021/06/02 11:22:14;;;;;;;3.47;2.45;;;28.80;41.40;;;;;;4891840;29;20321;-67
2021/06/02 11:24:48;;;;;;;2.80;2.60;;;28.70;41.70;;;;;;4905571;29;20330;-68
2021/06/02 11:27:38;;;;;;;1.98;1.88;;;28.80;41.80;;;;;;4889288;29;20294;-67
2021/06/02 11:30:19;;;;;;;2.03;1.92;;;28.90;41.30;;;;;;4886688;29;20772;-67
2021/06/02 11:32:56;;;;;;;2.42;1.70;;;29.00;41.10;;;;;;4892010;29;20297;-67
2021/06/02 11:35:54;;;;;;;3.45;1.58;;;29.00;41.10;;;;;;4935563;28;20201;-68
2021/06/02 11:38:22;;;;;;;1.48;1.40;;;29.00;41.00;;;;;;4979250;28;20763;-67
2021/06/02 11:40:52;;;;;;;1.85;1.75;;;29.10;41.10;;;;;;4964153;28;20217;-67
2021/06/02 11:43:20;;;;;;;2.83;1.33;;;29.30;40.70;;;;;;4965799;28;20208;-68
2021/06/02 11:45:48;;;;;;;1.42;1.40;;;29.90;40.40;;;;;;4962887;28;20228;-68
2021/06/02 11:48:21;;;;;;;1.83;1.73;;;30.70;40.20;;;;;;4965530;28;20208;-67
2021/06/02 11:50:48;;;;;;;1.73;1.60;;;31.60;39.00;;;;;;4964033;28;20248;-67
2021/06/02 11:53:16;;;;;;;3.97;1.70;;;32.30;38.70;;;;;;4968092;28;20261;-67
2021/06/02 11:55:43;;;;;;;4.35;2.05;;;32.90;38.30;;;;;;4965019;28;20200;-68
2021/06/02 11:58:11;;;;;;;3.15;1.83;;;33.30;38.10;;;;;;4967239;28;20213;-68
2021/06/02 12:00:38;;;;;;;2.17;2.08;;;33.70;37.80;;;;;;4964589;28;20227;-67
2021/06/02 12:03:06;;;;;;;4.43;2.13;;;33.70;37.30;;;;;;4960627;28;20341;-67
2021/06/02 12:05:35;;;;;;;2.33;2.13;;;33.20;37.30;;;;;;4967891;28;20212;-68
2021/06/02 12:08:03;;;;;;;7.07;2.20;;;32.70;37.60;;;;;;4965991;28;20204;-68
2021/06/02 12:10:32;;;;;;;3.05;2.13;;;32.20;37.50;;;;;;4957362;28;20222;-68
2021/06/02 12:13:00;;;;;;;2.50;2.15;;;31.50;38.00;;;;;;4967588;28;20205;-68
2021/06/02 12:15:38;;;;;;;2.10;2.00;;;31.20;38.70;;;;;;4964111;28;20564;-67
2021/06/02 12:18:05;;;;;;;4.38;1.80;;;31.20;38.90;;;;;;4966244;28;20741;-67
2021/06/02 12:20:35;;;;;;;3.08;1.90;;;31.20;38.70;;;;;;4966431;28;20203;-68
2021/06/02 12:23:04;;;;;;;3.45;2.20;;;31.00;38.90;;;;;;4965937;28;20749;-67
2021/06/02 12:25:32;;;;;;;5.18;2.00;;;30.80;39.30;;;;;;4966795;28;20237;-68
2021/06/02 12:28:00;;;;;;;3.33;1.92;;;30.40;39.80;;;;;;4967519;28;20209;-68
2021/06/02 12:30:31;;;;;;;2.30;2.10;;;29.90;40.40;;;;;;4962671;28;20232;-68
2021/06/02 12:32:58;;;;;;;2.90;1.67;;;29.40;41.10;;;;;;4965007;28;20192;-67
2021/06/02 12:35:27;;;;;;;3.30;2.38;;;28.90;42.70;;;;;;4966622;28;20220;-67
2021/06/02 12:38:06;;;;;;;8.35;2.92;;;28.40;43.00;;;;;;4968905;28;20204;-67
2021/06/02 12:40:33;;;;;;;2.55;2.33;;;28.00;44.20;;;;;;4960770;28;20292;-67
2021/06/02 12:43:00;;;;;;;2.90;2.28;;;27.60;45.10;;;;;;4967651;28;20204;-67
2021/06/02 12:45:29;;;;;;;4.03;1.95;;;27.20;45.70;;;;;;4965258;28;20221;-67
2021/06/02 12:47:56;;;;;;;4.57;1.90;;;26.90;46.00;;;;;;4963164;28;20622;-68
2021/06/02 12:50:41;;;;;;;2.35;1.75;;;26.60;46.40;;;;;;4965659;28;20575;-67
2021/06/02 12:53:09;;;;;;;2.75;1.85;;;26.20;46.70;;;;;;4965503;28;20243;-67
2021/06/02 12:55:36;;;;;;;2.45;1.67;;;26.00;46.90;;;;;;4967152;28;20206;-67
2021/06/02 12:58:05;;;;;;;1.70;1.60;;;25.80;47.00;;;;;;4970085;28;20291;-67
2021/06/02 13:00:33;;;;;;;1.98;1.63;;;25.60;47.20;;;;;;4966626;28;20218;-67
2021/06/02 13:03:00;;;;;;;5.60;1.50;;;25.50;47.50;;;;;;4971548;28;20263;-67
2021/06/02 13:05:28;;;;;;;3.05;1.52;;;25.40;47.60;;;;;;4970956;28;20586;-67
2021/06/02 13:08:05;;;;;;;3.08;1.80;;;25.30;47.50;;;;;;4971224;28;20818;-66
2021/06/02 13:10:33;;;;;;;2.97;1.65;;;25.30;47.20;;;;;;4967283;28;20586;-68
2021/06/02 13:13:01;;;;;;;1.65;1.55;;;25.30;46.80;;;;;;4970292;28;20495;-67
2021/06/02 13:15:30;;;;;;;3.88;1.50;;;25.20;46.60;;;;;;4968172;28;20450;-67
2021/06/02 13:17:59;;;;;;;3.67;1.45;;;25.20;46.60;;;;;;4971394;28;20276;-68
2021/06/02 13:20:30;;;;;;;2.75;1.35;;;25.20;46.50;;;;;;4969057;28;20658;-68
2021/06/02 13:23:15;;;;;;;3.38;1.50;;;25.00;45.90;;;;;;4970652;28;20192;-68
2021/06/02 13:25:43;;;;;;;2.15;1.73;;;24.90;45.90;;;;;;4971176;28;20229;-67
2021/06/02 13:28:10;;;;;;;5.32;1.50;;;24.70;45.70;;;;;;4971150;28;20201;-67
2021/06/02 13:30:42;;;;;;;1.30;1.30;;;24.60;45.60;;;;;;4968854;28;20665;-67